createdAt,value
2023-03-06T00:00:45.921Z,23.17
2023-03-06T00:04:45.910Z,23.19
2023-03-06T00:08:45.850Z,23.21
2023-03-06T00:12:45.815Z,23.17
2023-03-06T00:16:45.807Z,23.21
2023-03-06T00:20:45.752Z,23.17
2023-03-06T00:24:45.722Z,23.19
2023-03-06T00:28:45.679Z,23.20
2023-03-06T00:32:45.736Z,23.13
2023-03-06T00:36:45.663Z,23.17
2023-03-06T00:40:45.643Z,23.17
2023-03-06T00:44:45.625Z,23.17
2023-03-06T00:48:45.575Z,23.13
2023-03-06T00:52:45.544Z,23.13
2023-03-06T00:56:45.510Z,23.18
2023-03-06T01:00:45.491Z,23.13
2023-03-06T01:04:45.436Z,23.14
2023-03-06T01:08:45.386Z,23.13
2023-03-06T01:12:45.453Z,23.08
2023-03-06T01:16:45.593Z,23.11
2023-03-06T01:20:45.436Z,23.14
2023-03-06T01:24:45.349Z,23.08
2023-03-06T01:28:45.332Z,23.12
2023-03-06T01:32:45.299Z,23.09
2023-03-06T01:36:45.273Z,23.08
2023-03-06T01:40:45.240Z,23.03
2023-03-06T01:44:45.180Z,23.06
2023-03-06T01:48:45.148Z,23.12
2023-03-06T01:52:45.156Z,23.06
2023-03-06T01:56:45.103Z,23.03
2023-03-06T02:00:45.105Z,23.10
2023-03-06T02:04:45.022Z,23.15
2023-03-06T02:08:44.979Z,23.15
2023-03-06T02:12:44.949Z,23.05
2023-03-06T02:16:44.970Z,23.09
2023-03-06T02:20:44.939Z,23.08
2023-03-06T02:24:44.851Z,22.99
2023-03-06T02:28:44.829Z,23.02
2023-03-06T02:32:44.811Z,23.03
2023-03-06T02:36:44.763Z,23.00
2023-03-06T02:40:44.748Z,23.00
2023-03-06T02:44:44.715Z,22.98
2023-03-06T02:48:44.685Z,22.99
2023-03-06T02:52:44.608Z,22.99
2023-03-06T02:56:44.559Z,22.94
2023-03-06T03:00:44.552Z,23.03
2023-03-06T03:04:44.517Z,22.97
2023-03-06T03:08:44.539Z,22.94
2023-03-06T03:12:44.579Z,22.92
2023-03-06T03:16:44.825Z,22.92
2023-03-06T03:20:44.543Z,22.91
2023-03-06T03:24:44.433Z,22.89
2023-03-06T03:28:44.378Z,22.86
2023-03-06T03:32:44.362Z,22.94
2023-03-06T03:36:44.285Z,22.94
2023-03-06T03:40:44.267Z,22.86
2023-03-06T03:44:44.269Z,22.84
2023-03-06T03:48:44.191Z,22.84
2023-03-06T03:52:44.326Z,22.86
2023-03-06T03:56:44.537Z,22.86
2023-03-06T04:00:44.622Z,22.90
2023-03-06T04:04:44.832Z,22.86
2023-03-06T04:08:44.892Z,22.78
2023-03-06T04:12:45.005Z,22.84
2023-03-06T04:16:45.094Z,22.78
2023-03-06T04:20:45.221Z,22.81
2023-03-06T04:24:45.347Z,22.76
2023-03-06T04:28:45.522Z,22.83
2023-03-06T04:32:45.712Z,22.85
2023-03-06T04:36:45.679Z,22.83
2023-03-06T04:40:45.629Z,22.79
2023-03-06T04:44:45.633Z,22.79
2023-03-06T04:48:45.589Z,22.71
2023-03-06T04:52:45.508Z,22.72
2023-03-06T04:56:45.499Z,22.67
2023-03-06T05:00:45.494Z,22.77
2023-03-06T05:04:45.420Z,22.63
2023-03-06T05:08:45.392Z,22.63
2023-03-06T05:12:45.337Z,22.48
2023-03-06T05:16:45.423Z,22.35
2023-03-06T05:20:45.257Z,22.36
2023-03-06T05:24:45.249Z,22.33
2023-03-06T05:28:45.194Z,22.22
2023-03-06T05:32:45.248Z,22.31
2023-03-06T05:36:45.148Z,22.19
2023-03-06T05:40:45.100Z,22.16
2023-03-06T05:44:45.085Z,22.27
2023-03-06T05:48:46.773Z,22.31
2023-03-06T05:52:44.968Z,22.47
2023-03-06T05:56:44.954Z,22.75
2023-03-06T06:00:45.131Z,22.90
2023-03-06T06:04:45.112Z,22.89
2023-03-06T06:08:45.061Z,23.09
2023-03-06T06:12:45.018Z,23.00
2023-03-06T06:16:45.003Z,22.82
2023-03-06T06:20:44.956Z,22.94
2023-03-06T06:24:44.915Z,23.02
2023-03-06T06:28:44.868Z,23.12
2023-03-06T06:32:44.830Z,23.28
2023-03-06T06:36:44.782Z,23.24
2023-03-06T06:40:53.978Z,23.38
2023-03-06T06:44:45.791Z,23.38
2023-03-06T06:48:44.922Z,23.70
2023-03-06T06:52:44.903Z,24.19
2023-03-06T06:56:45.417Z,25.08
2023-03-06T07:00:45.031Z,25.54
2023-03-06T07:05:02.036Z,26.11
2023-03-06T07:08:46.435Z,26.31
2023-03-06T07:12:45.026Z,26.56
2023-03-06T07:16:44.957Z,26.87
2023-03-06T07:20:45.122Z,27.10
2023-03-06T07:24:45.077Z,27.31
2023-03-06T07:28:52.445Z,27.56
2023-03-06T07:32:46.177Z,27.81
2023-03-06T07:36:45.414Z,27.91
2023-03-06T07:40:45.574Z,28.18
2023-03-06T07:44:45.949Z,28.21
2023-03-06T07:48:45.882Z,28.54
2023-03-06T07:52:46.437Z,28.51
2023-03-06T07:56:46.424Z,28.51
2023-03-06T08:00:46.387Z,28.44
2023-03-06T08:04:46.558Z,28.38
2023-03-06T08:08:46.701Z,28.37
2023-03-06T08:12:46.932Z,28.44
2023-03-06T08:16:47.033Z,28.35
2023-03-06T08:20:47.156Z,28.31
2023-03-06T08:24:47.462Z,28.24
2023-03-06T08:28:47.455Z,28.27
2023-03-06T08:32:47.580Z,28.26
2023-03-06T08:36:47.738Z,28.19
2023-03-06T08:40:47.962Z,28.19
2023-03-06T08:44:48.447Z,28.32
2023-03-06T08:48:48.481Z,29.25
2023-03-06T08:52:48.292Z,28.88
2023-03-06T08:56:48.341Z,29.12
2023-03-06T09:00:48.541Z,29.43
2023-03-06T09:04:48.374Z,29.70
2023-03-06T09:08:48.336Z,30.24
2023-03-06T09:12:51.416Z,30.55
2023-03-06T09:16:48.332Z,30.88
2023-03-06T09:20:48.473Z,30.95
2023-03-06T09:24:48.197Z,31.19
2023-03-06T09:28:48.200Z,31.75
2023-03-06T09:32:48.175Z,32.22
2023-03-06T09:36:56.735Z,32.43
2023-03-06T09:40:49.385Z,32.40
2023-03-06T09:44:48.468Z,32.38
2023-03-06T09:48:48.473Z,32.44
2023-03-06T09:52:48.991Z,32.22
2023-03-06T09:56:49.020Z,31.96
2023-03-06T10:00:49.019Z,31.95
2023-03-06T10:04:48.980Z,31.72
2023-03-06T10:08:48.990Z,31.51
2023-03-06T10:12:48.875Z,31.38
2023-03-06T10:16:48.858Z,31.11
2023-03-06T10:20:48.981Z,30.63
2023-03-06T10:24:48.788Z,30.53
2023-03-06T10:28:49.035Z,30.33
2023-03-06T10:32:49.544Z,30.17
2023-03-06T10:36:48.998Z,30.12
2023-03-06T10:40:48.995Z,29.90
2023-03-06T10:44:49.024Z,29.47
2023-03-06T10:48:49.013Z,24.35
2023-03-06T10:52:48.550Z,23.36
2023-03-06T10:56:48.501Z,25.98
2023-03-06T11:00:48.540Z,27.07
2023-03-06T11:04:48.590Z,27.66
2023-03-06T11:08:48.420Z,28.02
2023-03-06T11:12:48.396Z,28.72
2023-03-06T11:16:48.622Z,28.97
2023-03-06T11:20:52.420Z,29.54
2023-03-06T11:24:48.575Z,29.93
2023-03-06T11:28:48.615Z,30.27
2023-03-06T11:32:48.512Z,30.67
2023-03-06T11:36:48.514Z,30.80
2023-03-06T11:40:48.412Z,31.25
2023-03-06T11:44:48.496Z,31.55
2023-03-06T11:48:48.395Z,31.77
2023-03-06T11:52:48.495Z,32.00
2023-03-06T11:56:48.617Z,32.30
2023-03-06T12:00:48.670Z,32.58
2023-03-06T12:04:48.791Z,32.80
2023-03-06T12:08:48.836Z,33.00
2023-03-06T12:12:48.879Z,33.30
2023-03-06T12:16:49.072Z,33.47
2023-03-06T12:20:48.949Z,33.67
2023-03-06T12:24:48.964Z,33.90
2023-03-06T12:28:48.932Z,34.07
2023-03-06T12:32:49.105Z,34.07
2023-03-06T12:36:49.047Z,33.61
2023-03-06T12:40:49.032Z,33.39
2023-03-06T12:44:48.950Z,33.16
2023-03-06T12:48:48.937Z,32.96
2023-03-06T12:52:49.233Z,32.83
2023-03-06T12:56:49.105Z,32.77
2023-03-06T13:00:52.568Z,32.57
2023-03-06T13:04:50.154Z,32.41
2023-03-06T13:08:49.558Z,32.27
2023-03-06T13:12:49.085Z,32.15
2023-03-06T13:16:49.126Z,31.89
2023-03-06T13:20:49.087Z,31.70
2023-03-06T13:24:50.815Z,31.55
2023-03-06T13:28:49.538Z,31.48
2023-03-06T13:32:49.188Z,31.38
2023-03-06T13:36:49.072Z,31.16
2023-03-06T13:40:49.069Z,31.09
2023-03-06T13:44:49.045Z,30.92
2023-03-06T13:48:49.674Z,30.78
2023-03-06T13:52:48.955Z,30.64
2023-03-06T13:56:48.929Z,30.53
2023-03-06T14:00:48.907Z,30.39
2023-03-06T14:04:48.842Z,30.25
2023-03-06T14:08:48.808Z,30.21
2023-03-06T14:12:48.785Z,30.07
2023-03-06T14:16:50.462Z,29.97
2023-03-06T14:20:48.685Z,29.84
2023-03-06T14:24:48.791Z,29.82
2023-03-06T14:28:48.871Z,29.70
2023-03-06T14:32:48.967Z,29.57
2023-03-06T14:36:49.144Z,29.52
2023-03-06T14:40:49.246Z,29.37
2023-03-06T14:44:49.302Z,29.32
2023-03-06T14:48:49.422Z,29.27
2023-03-06T14:52:49.475Z,29.06
2023-03-06T14:56:49.569Z,28.94
2023-03-06T15:00:49.693Z,28.80
2023-03-06T15:04:50.115Z,28.71
2023-03-06T15:08:49.736Z,28.62
2023-03-06T15:12:49.760Z,28.55
2023-03-06T15:16:50.210Z,28.50
2023-03-06T15:20:49.849Z,28.44
2023-03-06T15:24:50.085Z,28.42
2023-03-06T15:28:52.191Z,28.40
2023-03-06T15:32:49.926Z,28.38
2023-03-06T15:36:49.890Z,28.35
2023-03-06T15:40:49.881Z,28.18
2023-03-06T15:44:49.848Z,27.80
2023-03-06T15:48:49.803Z,27.71
2023-03-06T15:52:49.782Z,27.75
2023-03-06T15:56:49.716Z,27.85
2023-03-06T16:00:49.731Z,27.47
2023-03-06T16:04:49.677Z,27.22
2023-03-06T16:08:49.604Z,27.36
2023-03-06T16:12:49.610Z,27.48
2023-03-06T16:16:49.583Z,27.53
2023-03-06T16:20:49.713Z,27.65
2023-03-06T16:24:49.689Z,27.78
2023-03-06T16:28:49.636Z,27.91
2023-03-06T16:32:49.651Z,27.99
2023-03-06T16:36:49.557Z,28.01
2023-03-06T16:40:49.505Z,27.99
2023-03-06T16:44:49.497Z,27.96
2023-03-06T16:48:49.500Z,27.93
2023-03-06T16:52:49.443Z,27.85
2023-03-06T16:56:49.387Z,27.91
2023-03-06T17:00:49.685Z,28.00
2023-03-06T17:04:49.324Z,28.03
2023-03-06T17:08:49.290Z,28.04
2023-03-06T17:12:49.261Z,28.08
2023-03-06T17:16:49.224Z,28.03
2023-03-06T17:20:49.190Z,28.04
2023-03-06T17:24:49.185Z,28.02
2023-03-06T17:28:49.095Z,27.97
2023-03-06T17:32:49.045Z,27.93
2023-03-06T17:36:49.025Z,27.94
2023-03-06T17:40:49.007Z,27.94
2023-03-06T17:44:49.023Z,27.92
2023-03-06T17:48:49.729Z,27.92
2023-03-06T17:52:49.355Z,27.78
2023-03-06T17:56:49.501Z,27.74
2023-03-06T18:00:50.659Z,27.71
2023-03-06T18:04:49.874Z,27.65
2023-03-06T18:08:52.733Z,27.73
2023-03-06T18:12:50.028Z,27.70
2023-03-06T18:16:49.927Z,27.56
2023-03-06T18:20:49.906Z,27.48
2023-03-06T18:24:49.852Z,27.43
2023-03-06T18:28:49.819Z,27.43
2023-03-06T18:32:49.808Z,27.40
2023-03-06T18:36:49.759Z,27.32
2023-03-06T18:40:49.712Z,27.33
2023-03-06T18:44:49.728Z,27.25
2023-03-06T18:48:49.649Z,27.28
2023-03-06T18:52:49.625Z,27.28
2023-03-06T18:56:49.581Z,27.41
2023-03-06T19:00:49.823Z,27.22
2023-03-06T19:04:49.967Z,27.13
2023-03-06T19:08:50.175Z,27.13
2023-03-06T19:12:50.393Z,27.09
2023-03-06T19:16:50.633Z,27.01
2023-03-06T19:20:50.577Z,27.01
2023-03-06T19:24:50.522Z,26.93
2023-03-06T19:28:50.482Z,26.92
2023-03-06T19:32:50.481Z,26.90
2023-03-06T19:36:50.451Z,26.90
2023-03-06T19:40:50.394Z,26.90
2023-03-06T19:44:50.359Z,26.99
2023-03-06T19:48:50.324Z,26.83
2023-03-06T19:52:50.271Z,26.70
2023-03-06T19:56:50.345Z,26.69
2023-03-06T20:00:50.316Z,26.70
2023-03-06T20:04:50.326Z,26.70
2023-03-06T20:08:50.241Z,26.58
2023-03-06T20:12:50.713Z,26.55
2023-03-06T20:16:50.160Z,26.78
2023-03-06T20:20:50.123Z,26.63
2023-03-06T20:24:50.054Z,26.72
2023-03-06T20:28:50.025Z,26.65
2023-03-06T20:32:50.010Z,26.60
2023-03-06T20:36:50.123Z,26.62
2023-03-06T20:40:50.114Z,26.60
2023-03-06T20:44:50.015Z,26.39
2023-03-06T20:48:50.014Z,26.45
2023-03-06T20:52:50.107Z,26.28
2023-03-06T20:56:49.981Z,26.46
2023-03-06T21:00:49.908Z,26.33
2023-03-06T21:04:49.876Z,26.32
2023-03-06T21:08:49.860Z,26.24
2023-03-06T21:12:49.805Z,26.16
2023-03-06T21:16:49.814Z,26.29
2023-03-06T21:20:50.047Z,26.30
2023-03-06T21:24:50.169Z,26.28
2023-03-06T21:28:50.283Z,26.11
2023-03-06T21:32:50.421Z,26.13
2023-03-06T21:36:50.530Z,26.06
2023-03-06T21:40:50.650Z,26.09
2023-03-06T21:44:50.656Z,25.91
2023-03-06T21:48:50.714Z,25.94
2023-03-06T21:52:50.849Z,25.95
2023-03-06T21:56:50.794Z,25.88
2023-03-06T22:00:50.872Z,25.93
2023-03-06T22:04:50.829Z,25.95
2023-03-06T22:08:50.857Z,25.98
2023-03-06T22:12:50.827Z,26.09
2023-03-06T22:16:50.887Z,26.00
2023-03-06T22:20:50.792Z,26.02
2023-03-06T22:24:50.806Z,26.03
2023-03-06T22:28:50.902Z,25.97
2023-03-06T22:32:50.790Z,25.99
2023-03-06T22:36:50.740Z,25.89
2023-03-06T22:40:50.701Z,25.92
2023-03-06T22:44:50.713Z,25.86
2023-03-06T22:48:50.681Z,25.86
2023-03-06T22:52:50.686Z,25.76
2023-03-06T22:56:50.683Z,25.60
2023-03-06T23:00:50.739Z,25.58
2023-03-06T23:04:50.751Z,25.59
2023-03-06T23:08:50.718Z,25.73
2023-03-06T23:12:50.735Z,25.66
2023-03-06T23:16:50.751Z,25.59
2023-03-06T23:20:50.752Z,25.55
2023-03-06T23:24:50.760Z,25.49
2023-03-06T23:28:50.818Z,25.48
2023-03-06T23:32:50.837Z,25.56
2023-03-06T23:36:50.865Z,25.45
2023-03-06T23:40:50.894Z,25.53
2023-03-06T23:44:50.883Z,25.42
2023-03-06T23:48:50.884Z,25.49
2023-03-06T23:52:50.903Z,25.34
2023-03-06T23:56:50.888Z,25.32
